sensor_id;sensor_type;location;lat;lon;timestamp;temperature;humidity
48666;DHT22;34452;50.796;4.994;2022-09-09T00:02:18;15.40;99.90
48666;DHT22;34452;50.796;4.994;2022-09-09T00:04:49;15.40;99.90
48666;DHT22;34452;50.796;4.994;2022-09-09T00:07:36;15.30;99.90
48666;DHT22;34452;50.796;4.994;2022-09-09T00:10:09;15.30;99.90
48666;DHT22;34452;50.796;4.994;2022-09-09T00:12:48;15.30;99.90
48666;DHT22;34452;50.796;4.994;2022-09-09T00:15:19;15.30;99.90
48666;DHT22;34452;50.796;4.994;2022-09-09T00:17:47;15.30;99.90
48666;DHT22;34452;50.796;4.994;2022-09-09T00:20:36;15.30;99.90
48666;DHT22;34452;50.796;4.994;2022-09-09T00:23:24;15.30;99.90
48666;DHT22;34452;50.796;4.994;2022-09-09T00:28:19;15.20;99.90
48666;DHT22;34452;50.796;4.994;2022-09-09T00:30:46;15.20;99.90
48666;DHT22;34452;50.796;4.994;2022-09-09T00:33:16;15.20;99.90
48666;DHT22;34452;50.796;4.994;2022-09-09T00:35:48;15.20;99.90
48666;DHT22;34452;50.796;4.994;2022-09-09T00:40:49;15.10;99.90
48666;DHT22;34452;50.796;4.994;2022-09-09T00:43:21;15.20;99.90
48666;DHT22;34452;50.796;4.994;2022-09-09T00:48:58;15.10;99.90
48666;DHT22;34452;50.796;4.994;2022-09-09T00:51:48;15.20;99.90
48666;DHT22;34452;50.796;4.994;2022-09-09T00:59:47;15.30;99.90
48666;DHT22;34452;50.796;4.994;2022-09-09T01:02:35;15.40;99.90
48666;DHT22;34452;50.796;4.994;2022-09-09T01:05:21;15.40;99.90
48666;DHT22;34452;50.796;4.994;2022-09-09T01:07:49;15.50;99.90
48666;DHT22;34452;50.796;4.994;2022-09-09T01:10:29;15.50;99.90
48666;DHT22;34452;50.796;4.994;2022-09-09T01:13:04;15.50;99.90
48666;DHT22;34452;50.796;4.994;2022-09-09T01:15:34;15.40;99.90
48666;DHT22;34452;50.796;4.994;2022-09-09T01:18:05;15.50;99.90
48666;DHT22;34452;50.796;4.994;2022-09-09T01:23:28;15.50;99.90
48666;DHT22;34452;50.796;4.994;2022-09-09T01:28:49;15.50;99.90
48666;DHT22;34452;50.796;4.994;2022-09-09T01:31:21;15.50;99.90
48666;DHT22;34452;50.796;4.994;2022-09-09T01:33:48;15.50;99.90
48666;DHT22;34452;50.796;4.994;2022-09-09T01:36:32;15.50;99.90
48666;DHT22;34452;50.796;4.994;2022-09-09T01:39:00;15.50;99.90
48666;DHT22;34452;50.796;4.994;2022-09-09T01:41:26;15.50;99.90
48666;DHT22;34452;50.796;4.994;2022-09-09T01:43:54;15.50;99.90
48666;DHT22;34452;50.796;4.994;2022-09-09T01:46:21;15.60;99.90
48666;DHT22;34452;50.796;4.994;2022-09-09T01:48:49;15.60;99.90
48666;DHT22;34452;50.796;4.994;2022-09-09T01:51:15;15.60;99.90
48666;DHT22;34452;50.796;4.994;2022-09-09T01:53:42;15.60;99.90
48666;DHT22;34452;50.796;4.994;2022-09-09T02:01:53;15.60;99.90
48666;DHT22;34452;50.796;4.994;2022-09-09T02:06:56;15.60;99.90
48666;DHT22;34452;50.796;4.994;2022-09-09T02:09:24;15.50;99.90
48666;DHT22;34452;50.796;4.994;2022-09-09T02:14:41;15.60;99.90
48666;DHT22;34452;50.796;4.994;2022-09-09T02:17:10;15.50;99.90
48666;DHT22;34452;50.796;4.994;2022-09-09T02:19:41;15.50;99.90
48666;DHT22;34452;50.796;4.994;2022-09-09T02:22:11;15.40;99.90
48666;DHT22;34452;50.796;4.994;2022-09-09T02:24:40;15.40;99.90
48666;DHT22;34452;50.796;4.994;2022-09-09T02:27:08;15.50;99.90
48666;DHT22;34452;50.796;4.994;2022-09-09T02:29:37;15.40;99.90
48666;DHT22;34452;50.796;4.994;2022-09-09T02:32:07;15.40;99.90
48666;DHT22;34452;50.796;4.994;2022-09-09T02:34:37;15.40;99.90
48666;DHT22;34452;50.796;4.994;2022-09-09T02:37:08;15.40;99.90
48666;DHT22;34452;50.796;4.994;2022-09-09T02:39:35;15.40;99.90
48666;DHT22;34452;50.796;4.994;2022-09-09T02:42:00;15.30;99.90
48666;DHT22;34452;50.796;4.994;2022-09-09T02:44:29;15.40;99.90
48666;DHT22;34452;50.796;4.994;2022-09-09T02:47:26;15.30;99.90
48666;DHT22;34452;50.796;4.994;2022-09-09T02:50:13;15.40;99.90
48666;DHT22;34452;50.796;4.994;2022-09-09T02:53:01;15.40;99.90
48666;DHT22;34452;50.796;4.994;2022-09-09T02:55:51;15.30;99.90
48666;DHT22;34452;50.796;4.994;2022-09-09T02:58:20;15.30;99.90
48666;DHT22;34452;50.796;4.994;2022-09-09T03:00:49;15.30;99.90
48666;DHT22;34452;50.796;4.994;2022-09-09T03:03:16;15.30;99.90
48666;DHT22;34452;50.796;4.994;2022-09-09T03:05:43;15.30;99.90
48666;DHT22;34452;50.796;4.994;2022-09-09T03:08:08;15.30;99.90
48666;DHT22;34452;50.796;4.994;2022-09-09T03:10:35;15.30;99.90
48666;DHT22;34452;50.796;4.994;2022-09-09T03:13:02;15.30;99.90
48666;DHT22;34452;50.796;4.994;2022-09-09T03:15:31;15.30;99.90
48666;DHT22;34452;50.796;4.994;2022-09-09T03:17:58;15.30;99.90
48666;DHT22;34452;50.796;4.994;2022-09-09T03:20:25;15.30;99.90
48666;DHT22;34452;50.796;4.994;2022-09-09T03:22:52;15.30;99.90
48666;DHT22;34452;50.796;4.994;2022-09-09T03:25:19;15.30;99.90
48666;DHT22;34452;50.796;4.994;2022-09-09T03:27:45;15.30;99.90
48666;DHT22;34452;50.796;4.994;2022-09-09T03:30:11;15.30;99.90
48666;DHT22;34452;50.796;4.994;2022-09-09T03:32:36;15.20;99.90
48666;DHT22;34452;50.796;4.994;2022-09-09T03:35:03;15.20;99.90
48666;DHT22;34452;50.796;4.994;2022-09-09T03:37:28;15.30;99.90
48666;DHT22;34452;50.796;4.994;2022-09-09T03:39:54;15.20;99.90
48666;DHT22;34452;50.796;4.994;2022-09-09T03:42:20;15.30;99.90
48666;DHT22;34452;50.796;4.994;2022-09-09T03:44:46;15.30;99.90
48666;DHT22;34452;50.796;4.994;2022-09-09T03:47:17;15.30;99.90
48666;DHT22;34452;50.796;4.994;2022-09-09T03:49:43;15.30;99.90
48666;DHT22;34452;50.796;4.994;2022-09-09T03:52:09;15.30;99.90
48666;DHT22;34452;50.796;4.994;2022-09-09T03:54:35;15.30;99.90
48666;DHT22;34452;50.796;4.994;2022-09-09T03:57:01;15.30;99.90
48666;DHT22;34452;50.796;4.994;2022-09-09T03:59:27;15.30;99.90
48666;DHT22;34452;50.796;4.994;2022-09-09T04:01:53;15.30;99.90
48666;DHT22;34452;50.796;4.994;2022-09-09T04:04:19;15.20;99.90
48666;DHT22;34452;50.796;4.994;2022-09-09T04:06:45;15.20;99.90
48666;DHT22;34452;50.796;4.994;2022-09-09T04:09:11;15.20;99.90
48666;DHT22;34452;50.796;4.994;2022-09-09T04:11:37;15.20;99.90
48666;DHT22;34452;50.796;4.994;2022-09-09T04:14:03;15.20;99.90
48666;DHT22;34452;50.796;4.994;2022-09-09T04:16:32;15.20;99.90
48666;DHT22;34452;50.796;4.994;2022-09-09T04:18:58;15.20;99.90
48666;DHT22;34452;50.796;4.994;2022-09-09T04:21:25;15.20;99.90
48666;DHT22;34452;50.796;4.994;2022-09-09T04:23:51;15.20;99.90
48666;DHT22;34452;50.796;4.994;2022-09-09T04:26:17;15.20;99.90
48666;DHT22;34452;50.796;4.994;2022-09-09T04:28:43;15.20;99.90
48666;DHT22;34452;50.796;4.994;2022-09-09T04:31:21;15.10;99.90
48666;DHT22;34452;50.796;4.994;2022-09-09T04:33:49;15.10;99.90
48666;DHT22;34452;50.796;4.994;2022-09-09T04:36:16;15.20;99.90
48666;DHT22;34452;50.796;4.994;2022-09-09T04:38:41;15.20;99.90
48666;DHT22;34452;50.796;4.994;2022-09-09T04:41:08;15.10;99.90
48666;DHT22;34452;50.796;4.994;2022-09-09T04:43:36;15.10;99.90
48666;DHT22;34452;50.796;4.994;2022-09-09T04:46:03;15.20;99.90
48666;DHT22;34452;50.796;4.994;2022-09-09T04:48:29;15.20;99.90
48666;DHT22;34452;50.796;4.994;2022-09-09T04:50:58;15.10;99.90
48666;DHT22;34452;50.796;4.994;2022-09-09T04:53:24;15.10;99.90
48666;DHT22;34452;50.796;4.994;2022-09-09T04:55:51;15.10;99.90
48666;DHT22;34452;50.796;4.994;2022-09-09T04:58:17;15.10;99.90
48666;DHT22;34452;50.796;4.994;2022-09-09T05:00:42;15.20;99.90
48666;DHT22;34452;50.796;4.994;2022-09-09T05:03:08;15.20;99.90
48666;DHT22;34452;50.796;4.994;2022-09-09T05:05:35;15.20;99.90
48666;DHT22;34452;50.796;4.994;2022-09-09T05:08:01;15.20;99.90
48666;DHT22;34452;50.796;4.994;2022-09-09T05:10:27;15.20;99.90
48666;DHT22;34452;50.796;4.994;2022-09-09T05:12:53;15.30;99.90
48666;DHT22;34452;50.796;4.994;2022-09-09T05:15:19;15.30;99.90
48666;DHT22;34452;50.796;4.994;2022-09-09T05:17:46;15.40;99.90
48666;DHT22;34452;50.796;4.994;2022-09-09T05:20:12;15.40;99.90
48666;DHT22;34452;50.796;4.994;2022-09-09T05:22:37;15.50;99.90
48666;DHT22;34452;50.796;4.994;2022-09-09T05:25:04;15.50;99.90
48666;DHT22;34452;50.796;4.994;2022-09-09T05:27:29;15.50;99.90
48666;DHT22;34452;50.796;4.994;2022-09-09T05:29:57;15.50;99.90
48666;DHT22;34452;50.796;4.994;2022-09-09T05:32:23;15.60;99.90
48666;DHT22;34452;50.796;4.994;2022-09-09T05:34:49;15.60;99.90
48666;DHT22;34452;50.796;4.994;2022-09-09T05:37:15;15.60;99.90
48666;DHT22;34452;50.796;4.994;2022-09-09T05:39:42;15.60;99.90
48666;DHT22;34452;50.796;4.994;2022-09-09T05:42:07;15.60;99.90
48666;DHT22;34452;50.796;4.994;2022-09-09T05:44:33;15.70;99.90
48666;DHT22;34452;50.796;4.994;2022-09-09T05:46:59;15.70;99.90
48666;DHT22;34452;50.796;4.994;2022-09-09T05:49:25;15.70;99.90
48666;DHT22;34452;50.796;4.994;2022-09-09T05:51:51;15.80;99.90
48666;DHT22;34452;50.796;4.994;2022-09-09T05:54:17;15.80;99.90
48666;DHT22;34452;50.796;4.994;2022-09-09T05:56:43;15.80;99.90
48666;DHT22;34452;50.796;4.994;2022-09-09T05:59:08;15.90;99.90
48666;DHT22;34452;50.796;4.994;2022-09-09T06:01:36;15.90;99.90
48666;DHT22;34452;50.796;4.994;2022-09-09T06:04:06;15.90;99.90
48666;DHT22;34452;50.796;4.994;2022-09-09T06:06:34;15.90;99.90
48666;DHT22;34452;50.796;4.994;2022-09-09T06:09:11;15.90;99.90
48666;DHT22;34452;50.796;4.994;2022-09-09T06:11:38;15.90;99.90
48666;DHT22;34452;50.796;4.994;2022-09-09T06:14:05;15.90;99.90
48666;DHT22;34452;50.796;4.994;2022-09-09T06:16:31;15.90;99.90
48666;DHT22;34452;50.796;4.994;2022-09-09T06:18:58;16.00;99.90
48666;DHT22;34452;50.796;4.994;2022-09-09T06:21:36;16.00;99.90
48666;DHT22;34452;50.796;4.994;2022-09-09T06:24:03;16.00;99.90
48666;DHT22;34452;50.796;4.994;2022-09-09T06:26:30;16.10;99.90
48666;DHT22;34452;50.796;4.994;2022-09-09T06:28:56;16.30;99.90
48666;DHT22;34452;50.796;4.994;2022-09-09T06:31:25;16.30;99.90
48666;DHT22;34452;50.796;4.994;2022-09-09T06:33:52;16.30;99.90
48666;DHT22;34452;50.796;4.994;2022-09-09T06:36:20;16.30;99.90
48666;DHT22;34452;50.796;4.994;2022-09-09T06:38:46;16.30;99.90
48666;DHT22;34452;50.796;4.994;2022-09-09T06:41:14;16.30;99.90
48666;DHT22;34452;50.796;4.994;2022-09-09T06:43:40;16.40;99.90
48666;DHT22;34452;50.796;4.994;2022-09-09T06:46:10;16.40;99.90
48666;DHT22;34452;50.796;4.994;2022-09-09T06:48:38;16.40;99.90
48666;DHT22;34452;50.796;4.994;2022-09-09T06:51:07;16.40;99.90
48666;DHT22;34452;50.796;4.994;2022-09-09T06:53:35;16.40;99.90
48666;DHT22;34452;50.796;4.994;2022-09-09T06:56:17;16.40;99.90
48666;DHT22;34452;50.796;4.994;2022-09-09T06:58:43;16.40;99.90
48666;DHT22;34452;50.796;4.994;2022-09-09T07:01:12;16.40;99.90
48666;DHT22;34452;50.796;4.994;2022-09-09T07:03:39;16.50;99.90
48666;DHT22;34452;50.796;4.994;2022-09-09T07:06:06;16.60;99.90
48666;DHT22;34452;50.796;4.994;2022-09-09T07:08:33;16.70;99.90
48666;DHT22;34452;50.796;4.994;2022-09-09T07:11:17;16.70;99.90
48666;DHT22;34452;50.796;4.994;2022-09-09T07:13:43;16.80;99.90
48666;DHT22;34452;50.796;4.994;2022-09-09T07:16:11;16.80;99.90
48666;DHT22;34452;50.796;4.994;2022-09-09T07:18:39;16.80;99.90
48666;DHT22;34452;50.796;4.994;2022-09-09T07:21:05;16.90;99.90
48666;DHT22;34452;50.796;4.994;2022-09-09T07:23:32;17.00;99.90
48666;DHT22;34452;50.796;4.994;2022-09-09T07:25:58;17.00;99.90
48666;DHT22;34452;50.796;4.994;2022-09-09T07:28:25;17.00;99.90
48666;DHT22;34452;50.796;4.994;2022-09-09T07:30:54;17.00;99.90
48666;DHT22;34452;50.796;4.994;2022-09-09T07:33:19;16.90;99.90
48666;DHT22;34452;50.796;4.994;2022-09-09T07:35:45;16.90;99.90
48666;DHT22;34452;50.796;4.994;2022-09-09T07:38:11;16.80;99.90
48666;DHT22;34452;50.796;4.994;2022-09-09T07:40:37;16.80;99.90
48666;DHT22;34452;50.796;4.994;2022-09-09T07:43:03;16.90;99.90
48666;DHT22;34452;50.796;4.994;2022-09-09T07:45:29;16.90;99.90
48666;DHT22;34452;50.796;4.994;2022-09-09T07:47:57;16.90;99.90
48666;DHT22;34452;50.796;4.994;2022-09-09T07:50:24;16.90;99.90
48666;DHT22;34452;50.796;4.994;2022-09-09T07:52:51;16.80;99.90
48666;DHT22;34452;50.796;4.994;2022-09-09T07:55:17;16.90;99.90
48666;DHT22;34452;50.796;4.994;2022-09-09T07:57:42;16.90;99.90
48666;DHT22;34452;50.796;4.994;2022-09-09T08:00:09;16.90;99.90
48666;DHT22;34452;50.796;4.994;2022-09-09T08:02:35;16.90;99.90
48666;DHT22;34452;50.796;4.994;2022-09-09T08:05:01;16.90;99.90
48666;DHT22;34452;50.796;4.994;2022-09-09T08:07:27;16.90;99.90
48666;DHT22;34452;50.796;4.994;2022-09-09T08:09:54;16.90;99.90
48666;DHT22;34452;50.796;4.994;2022-09-09T08:12:21;16.90;99.90
48666;DHT22;34452;50.796;4.994;2022-09-09T08:14:47;16.90;99.90
48666;DHT22;34452;50.796;4.994;2022-09-09T08:17:14;16.90;99.90
48666;DHT22;34452;50.796;4.994;2022-09-09T08:19:40;17.00;99.90
48666;DHT22;34452;50.796;4.994;2022-09-09T08:22:06;17.00;99.90
48666;DHT22;34452;50.796;4.994;2022-09-09T08:24:33;16.90;99.90
48666;DHT22;34452;50.796;4.994;2022-09-09T08:26:58;16.90;99.90
48666;DHT22;34452;50.796;4.994;2022-09-09T08:29:24;16.90;99.90
48666;DHT22;34452;50.796;4.994;2022-09-09T08:31:52;16.80;99.90
48666;DHT22;34452;50.796;4.994;2022-09-09T08:34:20;16.80;99.90
48666;DHT22;34452;50.796;4.994;2022-09-09T08:36:47;16.90;99.90
48666;DHT22;34452;50.796;4.994;2022-09-09T08:39:15;16.90;99.90
48666;DHT22;34452;50.796;4.994;2022-09-09T08:44:49;17.00;99.90
48666;DHT22;34452;50.796;4.994;2022-09-09T08:47:44;17.00;99.90
48666;DHT22;34452;50.796;4.994;2022-09-09T08:53:21;17.10;99.90
48666;DHT22;34452;50.796;4.994;2022-09-09T08:58:35;17.20;99.90
48666;DHT22;34452;50.796;4.994;2022-09-09T09:07:01;17.30;99.90
48666;DHT22;34452;50.796;4.994;2022-09-09T09:09:38;17.30;99.90
48666;DHT22;34452;50.796;4.994;2022-09-09T09:12:18;17.30;99.90
48666;DHT22;34452;50.796;4.994;2022-09-09T09:14:46;17.40;99.90
48666;DHT22;34452;50.796;4.994;2022-09-09T09:17:15;17.40;99.90
48666;DHT22;34452;50.796;4.994;2022-09-09T09:19:43;17.50;99.90
48666;DHT22;34452;50.796;4.994;2022-09-09T09:22:39;17.50;99.90
48666;DHT22;34452;50.796;4.994;2022-09-09T09:25:10;17.60;99.90
48666;DHT22;34452;50.796;4.994;2022-09-09T09:30:40;17.60;99.90
48666;DHT22;34452;50.796;4.994;2022-09-09T09:33:17;17.50;99.90
48666;DHT22;34452;50.796;4.994;2022-09-09T09:35:44;17.50;99.90
48666;DHT22;34452;50.796;4.994;2022-09-09T09:38:26;17.40;99.90
48666;DHT22;34452;50.796;4.994;2022-09-09T09:40:55;17.30;99.90
48666;DHT22;34452;50.796;4.994;2022-09-09T09:43:27;17.30;99.90
48666;DHT22;34452;50.796;4.994;2022-09-09T09:45:53;17.30;99.90
48666;DHT22;34452;50.796;4.994;2022-09-09T09:48:19;17.30;99.90
48666;DHT22;34452;50.796;4.994;2022-09-09T09:50:49;17.20;99.90
48666;DHT22;34452;50.796;4.994;2022-09-09T09:53:21;17.10;99.90
48666;DHT22;34452;50.796;4.994;2022-09-09T09:58:50;16.90;99.90
48666;DHT22;34452;50.796;4.994;2022-09-09T10:01:32;16.70;99.90
48666;DHT22;34452;50.796;4.994;2022-09-09T10:04:01;16.70;99.90
48666;DHT22;34452;50.796;4.994;2022-09-09T10:06:39;16.70;99.90
48666;DHT22;34452;50.796;4.994;2022-09-09T10:09:26;16.60;99.90
48666;DHT22;34452;50.796;4.994;2022-09-09T10:17:18;16.50;99.90
48666;DHT22;34452;50.796;4.994;2022-09-09T10:20:00;16.50;99.90
48666;DHT22;34452;50.796;4.994;2022-09-09T10:22:33;16.60;99.90
48666;DHT22;34452;50.796;4.994;2022-09-09T10:27:49;16.70;99.90
48666;DHT22;34452;50.796;4.994;2022-09-09T10:30:19;16.80;99.90
48666;DHT22;34452;50.796;4.994;2022-09-09T10:32:51;16.80;99.90
48666;DHT22;34452;50.796;4.994;2022-09-09T10:35:34;16.90;99.90
48666;DHT22;34452;50.796;4.994;2022-09-09T10:38:24;16.90;99.90
48666;DHT22;34452;50.796;4.994;2022-09-09T10:49:13;17.10;99.90
48666;DHT22;34452;50.796;4.994;2022-09-09T10:54:24;17.10;99.90
48666;DHT22;34452;50.796;4.994;2022-09-09T10:56:59;17.30;99.90
48666;DHT22;34452;50.796;4.994;2022-09-09T10:59:31;17.30;99.90
48666;DHT22;34452;50.796;4.994;2022-09-09T11:02:05;17.40;99.90
48666;DHT22;34452;50.796;4.994;2022-09-09T11:04:53;17.50;99.90
48666;DHT22;34452;50.796;4.994;2022-09-09T11:07:29;17.50;99.90
48666;DHT22;34452;50.796;4.994;2022-09-09T11:10:02;17.60;99.90
48666;DHT22;34452;50.796;4.994;2022-09-09T11:12:34;17.60;99.90
48666;DHT22;34452;50.796;4.994;2022-09-09T11:15:05;17.60;99.90
48666;DHT22;34452;50.796;4.994;2022-09-09T11:17:41;17.70;99.90
48666;DHT22;34452;50.796;4.994;2022-09-09T11:20:12;17.70;99.90
48666;DHT22;34452;50.796;4.994;2022-09-09T11:25:30;17.80;99.90
48666;DHT22;34452;50.796;4.994;2022-09-09T11:31:21;17.90;99.90
48666;DHT22;34452;50.796;4.994;2022-09-09T11:34:03;17.90;99.90
48666;DHT22;34452;50.796;4.994;2022-09-09T11:42:35;17.90;99.90
48666;DHT22;34452;50.796;4.994;2022-09-09T11:48:05;17.80;99.90
48666;DHT22;34452;50.796;4.994;2022-09-09T11:50:34;17.70;99.90
48666;DHT22;34452;50.796;4.994;2022-09-09T11:53:06;17.70;99.90
48666;DHT22;34452;50.796;4.994;2022-09-09T11:55:41;17.80;99.90
48666;DHT22;34452;50.796;4.994;2022-09-09T11:58:26;17.90;99.90
48666;DHT22;34452;50.796;4.994;2022-09-09T12:00:53;18.00;99.90
48666;DHT22;34452;50.796;4.994;2022-09-09T12:08:53;18.30;99.90
48666;DHT22;34452;50.796;4.994;2022-09-09T12:11:38;18.40;99.90
48666;DHT22;34452;50.796;4.994;2022-09-09T12:14:04;18.50;99.90
48666;DHT22;34452;50.796;4.994;2022-09-09T12:16:33;18.60;99.90
48666;DHT22;34452;50.796;4.994;2022-09-09T12:24:50;18.60;99.90
48666;DHT22;34452;50.796;4.994;2022-09-09T12:30:09;18.60;99.90
48666;DHT22;34452;50.796;4.994;2022-09-09T12:32:36;18.70;99.90
48666;DHT22;34452;50.796;4.994;2022-09-09T12:35:09;18.70;99.90
48666;DHT22;34452;50.796;4.994;2022-09-09T12:40:35;18.70;99.90
48666;DHT22;34452;50.796;4.994;2022-09-09T12:43:17;18.70;99.90
48666;DHT22;34452;50.796;4.994;2022-09-09T12:45:44;18.80;99.90
48666;DHT22;34452;50.796;4.994;2022-09-09T12:48:11;18.90;99.90
48666;DHT22;34452;50.796;4.994;2022-09-09T12:50:59;19.00;99.90
48666;DHT22;34452;50.796;4.994;2022-09-09T12:53:30;19.30;99.90
48666;DHT22;34452;50.796;4.994;2022-09-09T12:56:00;19.50;99.90
48666;DHT22;34452;50.796;4.994;2022-09-09T12:58:29;19.40;99.90
48666;DHT22;34452;50.796;4.994;2022-09-09T13:00:59;19.40;99.90
48666;DHT22;34452;50.796;4.994;2022-09-09T13:03:25;19.60;99.90
48666;DHT22;34452;50.796;4.994;2022-09-09T13:05:51;19.50;99.90
48666;DHT22;34452;50.796;4.994;2022-09-09T13:08:17;19.50;99.90
48666;DHT22;34452;50.796;4.994;2022-09-09T13:11:03;19.40;99.90
48666;DHT22;34452;50.796;4.994;2022-09-09T13:13:35;19.60;99.90
48666;DHT22;34452;50.796;4.994;2022-09-09T13:16:02;19.80;99.90
48666;DHT22;34452;50.796;4.994;2022-09-09T13:18:32;19.70;99.90
48666;DHT22;34452;50.796;4.994;2022-09-09T13:20:59;19.60;99.90
48666;DHT22;34452;50.796;4.994;2022-09-09T13:23:29;19.50;99.90
48666;DHT22;34452;50.796;4.994;2022-09-09T13:25:57;19.40;99.90
48666;DHT22;34452;50.796;4.994;2022-09-09T13:28:26;19.40;99.90
48666;DHT22;34452;50.796;4.994;2022-09-09T13:33:52;19.40;99.90
48666;DHT22;34452;50.796;4.994;2022-09-09T13:36:29;19.60;99.90
48666;DHT22;34452;50.796;4.994;2022-09-09T13:38:56;19.80;99.90
48666;DHT22;34452;50.796;4.994;2022-09-09T13:41:24;20.10;99.90
48666;DHT22;34452;50.796;4.994;2022-09-09T13:43:51;20.10;99.90
48666;DHT22;34452;50.796;4.994;2022-09-09T13:46:36;20.10;99.90
48666;DHT22;34452;50.796;4.994;2022-09-09T13:49:19;20.10;99.90
48666;DHT22;34452;50.796;4.994;2022-09-09T13:51:49;20.40;99.90
48666;DHT22;34452;50.796;4.994;2022-09-09T13:54:17;20.80;99.90
48666;DHT22;34452;50.796;4.994;2022-09-09T13:56:44;20.90;99.90
48666;DHT22;34452;50.796;4.994;2022-09-09T13:59:14;20.90;99.90
48666;DHT22;34452;50.796;4.994;2022-09-09T14:01:41;20.80;99.90
48666;DHT22;34452;50.796;4.994;2022-09-09T14:04:08;20.60;99.90
48666;DHT22;34452;50.796;4.994;2022-09-09T14:06:35;20.60;99.90
48666;DHT22;34452;50.796;4.994;2022-09-09T14:09:14;20.50;99.90
48666;DHT22;34452;50.796;4.994;2022-09-09T14:11:41;20.40;99.90
48666;DHT22;34452;50.796;4.994;2022-09-09T14:14:07;20.40;99.90
48666;DHT22;34452;50.796;4.994;2022-09-09T14:16:35;20.30;99.90
48666;DHT22;34452;50.796;4.994;2022-09-09T14:19:01;20.20;99.90
48666;DHT22;34452;50.796;4.994;2022-09-09T14:21:27;20.20;99.90
48666;DHT22;34452;50.796;4.994;2022-09-09T14:23:53;20.40;99.90
48666;DHT22;34452;50.796;4.994;2022-09-09T14:26:29;20.60;99.90
48666;DHT22;34452;50.796;4.994;2022-09-09T14:28:55;20.90;99.90
48666;DHT22;34452;50.796;4.994;2022-09-09T14:31:22;21.00;99.90
48666;DHT22;34452;50.796;4.994;2022-09-09T14:37:21;21.30;99.90
48666;DHT22;34452;50.796;4.994;2022-09-09T14:39:47;21.40;99.90
48666;DHT22;34452;50.796;4.994;2022-09-09T14:42:15;21.10;99.90
48666;DHT22;34452;50.796;4.994;2022-09-09T14:44:41;20.90;99.90
48666;DHT22;34452;50.796;4.994;2022-09-09T14:47:08;20.80;99.90
48666;DHT22;34452;50.796;4.994;2022-09-09T14:49:36;20.70;99.90
48666;DHT22;34452;50.796;4.994;2022-09-09T14:52:03;20.70;99.90
48666;DHT22;34452;50.796;4.994;2022-09-09T14:54:29;20.80;99.90
48666;DHT22;34452;50.796;4.994;2022-09-09T14:56:55;20.80;99.90
48666;DHT22;34452;50.796;4.994;2022-09-09T14:59:22;20.80;99.90
48666;DHT22;34452;50.796;4.994;2022-09-09T15:01:48;20.70;99.90
48666;DHT22;34452;50.796;4.994;2022-09-09T15:04:14;20.70;99.90
48666;DHT22;34452;50.796;4.994;2022-09-09T15:06:40;20.70;99.90
48666;DHT22;34452;50.796;4.994;2022-09-09T15:09:08;20.70;99.90
48666;DHT22;34452;50.796;4.994;2022-09-09T15:11:36;20.60;99.90
48666;DHT22;34452;50.796;4.994;2022-09-09T15:14:04;20.60;99.90
48666;DHT22;34452;50.796;4.994;2022-09-09T15:16:30;20.50;99.90
48666;DHT22;34452;50.796;4.994;2022-09-09T15:18:59;20.40;99.90
48666;DHT22;34452;50.796;4.994;2022-09-09T15:21:27;20.40;99.90
48666;DHT22;34452;50.796;4.994;2022-09-09T15:23:54;20.40;99.90
48666;DHT22;34452;50.796;4.994;2022-09-09T15:26:20;20.40;99.90
48666;DHT22;34452;50.796;4.994;2022-09-09T15:28:47;20.40;99.90
48666;DHT22;34452;50.796;4.994;2022-09-09T15:31:16;20.40;99.90
48666;DHT22;34452;50.796;4.994;2022-09-09T15:33:59;20.80;99.90
48666;DHT22;34452;50.796;4.994;2022-09-09T15:36:29;21.20;99.90
48666;DHT22;34452;50.796;4.994;2022-09-09T15:38:55;21.10;99.90
48666;DHT22;34452;50.796;4.994;2022-09-09T15:41:22;20.80;99.90
48666;DHT22;34452;50.796;4.994;2022-09-09T15:43:51;20.60;99.90
48666;DHT22;34452;50.796;4.994;2022-09-09T15:48:44;20.20;99.90
48666;DHT22;34452;50.796;4.994;2022-09-09T15:51:10;20.10;99.90
48666;DHT22;34452;50.796;4.994;2022-09-09T15:53:36;20.00;99.90
48666;DHT22;34452;50.796;4.994;2022-09-09T15:56:05;19.90;99.90
48666;DHT22;34452;50.796;4.994;2022-09-09T15:58:32;19.80;99.90
48666;DHT22;34452;50.796;4.994;2022-09-09T16:01:17;19.70;99.90
48666;DHT22;34452;50.796;4.994;2022-09-09T16:03:44;19.60;99.90
48666;DHT22;34452;50.796;4.994;2022-09-09T16:06:13;19.50;99.90
48666;DHT22;34452;50.796;4.994;2022-09-09T16:08:41;19.40;99.90
48666;DHT22;34452;50.796;4.994;2022-09-09T16:11:11;19.50;99.90
48666;DHT22;34452;50.796;4.994;2022-09-09T16:13:38;20.20;99.90
48666;DHT22;34452;50.796;4.994;2022-09-09T16:16:06;21.00;99.90
48666;DHT22;34452;50.796;4.994;2022-09-09T16:18:36;21.00;99.90
48666;DHT22;34452;50.796;4.994;2022-09-09T16:21:03;21.10;99.90
48666;DHT22;34452;50.796;4.994;2022-09-09T16:23:31;21.30;99.90
48666;DHT22;34452;50.796;4.994;2022-09-09T16:25:57;21.10;99.90
48666;DHT22;34452;50.796;4.994;2022-09-09T16:28:24;20.70;99.90
48666;DHT22;34452;50.796;4.994;2022-09-09T16:30:49;20.40;99.90
48666;DHT22;34452;50.796;4.994;2022-09-09T16:33:16;20.20;99.90
48666;DHT22;34452;50.796;4.994;2022-09-09T16:35:42;20.10;99.90
48666;DHT22;34452;50.796;4.994;2022-09-09T16:38:08;20.00;99.90
48666;DHT22;34452;50.796;4.994;2022-09-09T16:40:35;19.90;99.90
48666;DHT22;34452;50.796;4.994;2022-09-09T16:43:02;20.00;99.90
48666;DHT22;34452;50.796;4.994;2022-09-09T16:45:28;20.40;99.90
48666;DHT22;34452;50.796;4.994;2022-09-09T16:47:53;21.10;99.90
48666;DHT22;34452;50.796;4.994;2022-09-09T16:50:19;21.00;99.90
48666;DHT22;34452;50.796;4.994;2022-09-09T16:52:45;20.90;99.90
48666;DHT22;34452;50.796;4.994;2022-09-09T16:55:11;21.60;99.90
48666;DHT22;34452;50.796;4.994;2022-09-09T16:57:37;21.60;99.90
48666;DHT22;34452;50.796;4.994;2022-09-09T17:00:04;21.20;99.90
48666;DHT22;34452;50.796;4.994;2022-09-09T17:02:31;20.70;99.90
48666;DHT22;34452;50.796;4.994;2022-09-09T17:04:57;20.30;99.90
48666;DHT22;34452;50.796;4.994;2022-09-09T17:07:22;20.10;99.90
48666;DHT22;34452;50.796;4.994;2022-09-09T17:09:48;19.80;99.90
48666;DHT22;34452;50.796;4.994;2022-09-09T17:12:14;19.70;99.90
48666;DHT22;34452;50.796;4.994;2022-09-09T17:14:41;19.50;99.90
48666;DHT22;34452;50.796;4.994;2022-09-09T17:17:07;19.40;99.90
48666;DHT22;34452;50.796;4.994;2022-09-09T17:19:33;19.30;99.90
48666;DHT22;34452;50.796;4.994;2022-09-09T17:21:59;19.10;99.90
48666;DHT22;34452;50.796;4.994;2022-09-09T17:24:26;19.10;99.90
48666;DHT22;34452;50.796;4.994;2022-09-09T17:26:52;19.00;99.90
48666;DHT22;34452;50.796;4.994;2022-09-09T17:29:18;18.90;99.90
48666;DHT22;34452;50.796;4.994;2022-09-09T17:31:44;18.90;99.90
48666;DHT22;34452;50.796;4.994;2022-09-09T17:34:10;18.80;99.90
48666;DHT22;34452;50.796;4.994;2022-09-09T17:36:37;18.80;99.90